LFRB 281600Z AUTO 22020KT 9999 -DZ OVC003 12/12 Q1008 TEMPO 23015G25KT 0700 FG VV/

ElémentsDécodage
LFRB Station météo située sur l'aérodrome de BREST Guipavas
281600Z émis le 28 du mois à 16h00 UTC
AUTO Bulletin édité par un automate
22020KT vent du 220°, 20 noeuds
9999 visibilité horizontale supérieure à 10 Km
-DZ faible bruine
OVC003 couverture nuageuse totale (8/8) à 300 pieds
12/12 température 12°C, point de rosée 12°C
 soit une humidité relative de 100%
Q1008 la pression au niveau de la mer (QNH) est de 1008 hPa
TEMPO fluctuation temporaire prévue
23015G25KT vent du 230°, moyenne: 15 noeuds, avec rafales à 25 noeuds
0700 visibilité horizontale de 700 mètres
FG brouillard
VV/ Visibilité verticale: /00 pieds